Time;durP1;ratioP1;P1;durP2;ratioP2;P2;SDS_P1;SDS_P2;PMS_P1;PMS_P2;Temp;Humidity;BMP_temperature;BMP_pressure;BME280_temperature;BME280_humidity;BME280_pressure;Samples;Min_cycle;Max_cycle;Signal;HPM_P1;HPM_P2
2021/08/18 00:00:42;;;;;;;42.00;19.73;;;;;;;13.73;100.00;101528.66;5063816;28;20020;-61
2021/08/18 00:03:08;;;;;;;40.83;20.58;;;;;;;13.73;100.00;101526.00;5065125;28;20055;-60
2021/08/18 00:05:33;;;;;;;41.45;20.30;;;;;;;13.72;100.00;101525.13;5064248;28;20549;-61
2021/08/18 00:08:01;;;;;;;42.38;20.65;;;;;;;13.71;100.00;101520.69;5063879;28;20075;-67
2021/08/18 00:10:27;;;;;;;37.97;18.67;;;;;;;13.71;100.00;101514.50;5064818;28;20376;-64
2021/08/18 00:12:53;;;;;;;39.20;20.10;;;;;;;13.71;100.00;101519.81;5062979;28;20028;-67
2021/08/18 00:15:18;;;;;;;40.22;19.27;;;;;;;13.69;100.00;101513.59;5066008;28;20027;-65
2021/08/18 00:17:44;;;;;;;38.25;19.15;;;;;;;13.70;100.00;101515.38;5062432;28;20053;-63
2021/08/18 00:20:11;;;;;;;38.83;18.85;;;;;;;13.68;100.00;101518.03;5065064;28;20485;-64
2021/08/18 00:22:36;;;;;;;37.55;19.33;;;;;;;13.68;100.00;101514.50;5063242;28;20541;-69
2021/08/18 00:25:03;;;;;;;39.22;19.45;;;;;;;13.66;100.00;101522.47;5064109;28;20116;-66
2021/08/18 00:27:28;;;;;;;37.70;17.95;;;;;;;13.67;100.00;101518.91;5064195;28;20033;-64
2021/08/18 00:29:53;;;;;;;37.38;18.40;;;;;;;13.69;100.00;101521.56;5061863;28;20069;-64
2021/08/18 00:32:19;;;;;;;37.88;18.10;;;;;;;13.68;100.00;101511.84;5065376;28;20025;-66
2021/08/18 00:34:44;;;;;;;37.55;19.17;;;;;;;13.68;100.00;101522.47;5062236;28;20021;-65
2021/08/18 00:37:09;;;;;;;39.55;19.17;;;;;;;13.68;100.00;101512.72;5064840;28;20093;-65
2021/08/18 00:39:35;;;;;;;36.83;18.90;;;;;;;13.67;100.00;101516.25;5063404;28;20059;-66
2021/08/18 00:42:00;;;;;;;38.58;18.02;;;;;;;13.67;100.00;101518.03;5063269;28;20098;-65
2021/08/18 00:44:26;;;;;;;36.85;18.73;;;;;;;13.66;100.00;101511.84;5064482;28;20032;-66
2021/08/18 00:46:56;;;;;;;38.03;18.95;;;;;;;13.68;100.00;101511.84;5061719;28;20060;-66
2021/08/18 00:49:22;;;;;;;37.13;17.73;;;;;;;13.68;100.00;101511.84;5064872;28;20055;-65
2021/08/18 00:51:49;;;;;;;36.63;18.83;;;;;;;13.66;100.00;101514.50;5061828;28;20029;-65
2021/08/18 00:54:16;;;;;;;35.33;17.80;;;;;;;13.66;100.00;101509.19;5064858;28;20107;-65
2021/08/18 00:56:42;;;;;;;36.60;17.67;;;;;;;13.67;100.00;101510.94;5061951;28;20523;-65
2021/08/18 00:59:09;;;;;;;34.67;17.45;;;;;;;13.68;100.00;101514.50;5064121;28;20116;-65
2021/08/18 01:01:35;;;;;;;37.78;18.00;;;;;;;13.67;100.00;101520.69;5062895;28;20479;-65
2021/08/18 01:04:01;;;;;;;38.95;18.77;;;;;;;13.68;100.00;101511.84;5062947;28;20028;-65
2021/08/18 01:06:27;;;;;;;38.65;18.23;;;;;;;13.69;100.00;101510.94;5064035;28;20371;-66
2021/08/18 01:08:52;;;;;;;37.67;18.40;;;;;;;13.69;100.00;101508.28;5061826;28;20043;-66
2021/08/18 01:11:18;;;;;;;35.80;17.83;;;;;;;13.70;100.00;101512.72;5064972;28;20468;-66
2021/08/18 01:13:45;;;;;;;39.97;19.02;;;;;;;13.71;100.00;101517.16;5061685;28;20039;-66
2021/08/18 01:16:10;;;;;;;36.95;17.70;;;;;;;13.72;100.00;101518.94;5064014;28;20028;-65
2021/08/18 01:18:36;;;;;;;40.05;19.05;;;;;;;13.72;100.00;101514.50;5062716;28;20050;-66
2021/08/18 01:21:01;;;;;;;38.05;18.35;;;;;;;13.74;100.00;101520.69;5062918;28;20029;-65
2021/08/18 01:23:27;;;;;;;40.30;18.60;;;;;;;13.75;100.00;101513.63;5063909;28;20352;-66
2021/08/18 01:25:53;;;;;;;37.60;18.50;;;;;;;13.74;100.00;101515.38;5061714;28;20033;-66
2021/08/18 01:28:18;;;;;;;37.25;18.83;;;;;;;13.75;100.00;101517.16;5064842;28;20104;-65
2021/08/18 01:30:44;;;;;;;35.40;18.25;;;;;;;13.76;100.00;101507.41;5061164;28;20108;-65
2021/08/18 01:33:13;;;;;;;36.15;18.30;;;;;;;13.75;100.00;101514.50;5063885;28;20060;-66
2021/08/18 01:35:42;;;;;;;38.60;18.90;;;;;;;13.74;100.00;101510.06;5062228;28;20024;-65
2021/08/18 01:38:09;;;;;;;38.25;18.52;;;;;;;13.76;100.00;101515.38;5063164;28;20029;-65
2021/08/18 01:40:35;;;;;;;38.08;19.63;;;;;;;13.76;100.00;101515.38;5062832;28;20024;-66
2021/08/18 01:43:01;;;;;;;39.90;20.40;;;;;;;13.77;100.00;101520.72;5062225;28;20017;-66
2021/08/18 01:45:35;;;;;;;38.72;19.48;;;;;;;13.77;100.00;101517.16;5063349;28;20028;-66
2021/08/18 01:48:11;;;;;;;39.47;19.30;;;;;;;13.76;100.00;101508.31;5061046;28;20021;-65
2021/08/18 01:50:37;;;;;;;40.53;19.88;;;;;;;13.79;100.00;101518.06;5062250;28;20020;-65
2021/08/18 01:53:03;;;;;;;41.70;19.75;;;;;;;13.81;100.00;101510.97;5062270;28;20104;-65
2021/08/18 01:55:30;;;;;;;38.17;19.98;;;;;;;13.82;100.00;101514.50;5063151;28;20029;-66
2021/08/18 01:57:57;;;;;;;38.28;19.38;;;;;;;13.82;100.00;101509.19;5061874;28;20029;-66
2021/08/18 02:00:23;;;;;;;39.10;19.85;;;;;;;13.82;100.00;101519.81;5063812;28;20487;-65
2021/08/18 02:02:49;;;;;;;40.42;20.17;;;;;;;13.83;100.00;101521.59;5060828;28;20052;-65
2021/08/18 02:05:15;;;;;;;39.28;20.83;;;;;;;13.82;100.00;101510.09;5064465;28;20418;-65
2021/08/18 02:07:40;;;;;;;39.63;20.55;;;;;;;13.84;100.00;101512.75;5061343;28;20029;-65
2021/08/18 02:10:12;;;;;;;41.35;21.08;;;;;;;13.85;100.00;101510.09;5062731;28;20021;-64
2021/08/18 02:12:38;;;;;;;40.55;21.00;;;;;;;13.84;100.00;101503.00;5062046;28;20094;-64
2021/08/18 02:15:06;;;;;;;41.58;22.38;;;;;;;13.84;100.00;101503.00;5062645;28;20021;-64
2021/08/18 02:17:31;;;;;;;43.50;22.08;;;;;;;13.84;100.00;101503.00;5062528;28;20020;-65
2021/08/18 02:19:56;;;;;;;42.88;22.23;;;;;;;13.84;100.00;101502.13;5061575;28;20017;-65
2021/08/18 02:22:22;;;;;;;41.45;21.48;;;;;;;13.84;100.00;101510.97;5062791;28;20025;-68
2021/08/18 02:24:47;;;;;;;42.78;21.58;;;;;;;13.85;100.00;101510.09;5060732;28;20419;-64
2021/08/18 02:27:12;;;;;;;42.13;22.27;;;;;;;13.86;100.00;101505.66;5063659;28;20039;-64
2021/08/18 02:29:38;;;;;;;43.22;21.48;;;;;;;13.84;100.00;101497.69;5061482;28;20031;-65
2021/08/18 02:32:03;;;;;;;42.00;22.50;;;;;;;13.85;100.00;101503.88;5062167;28;20029;-65
2021/08/18 02:34:29;;;;;;;43.75;22.40;;;;;;;13.86;100.00;101501.25;5062950;28;20085;-65
2021/08/18 02:36:54;;;;;;;42.67;23.00;;;;;;;13.85;100.00;101507.44;5060777;28;20087;-65
2021/08/18 02:39:19;;;;;;;43.58;22.55;;;;;;;13.86;100.00;101510.97;5064028;28;20017;-64
2021/08/18 02:41:45;;;;;;;43.97;24.08;;;;;;;13.85;100.00;101507.44;5060682;28;20068;-65
2021/08/18 02:44:10;;;;;;;43.08;22.38;;;;;;;13.84;100.00;101502.13;5063000;28;20476;-63
2021/08/18 02:46:35;;;;;;;43.85;23.42;;;;;;;13.84;100.00;101496.81;5061556;28;20048;-65
2021/08/18 02:49:01;;;;;;;44.92;23.63;;;;;;;13.83;100.00;101495.91;5061582;28;20037;-66
2021/08/18 02:51:26;;;;;;;43.05;21.88;;;;;;;13.81;100.00;101497.69;5063053;28;20115;-66
2021/08/18 02:53:51;;;;;;;43.60;22.45;;;;;;;13.79;100.00;101488.84;5061784;28;20052;-66
2021/08/18 02:56:17;;;;;;;43.05;21.83;;;;;;;13.78;100.00;101489.72;5067602;28;20481;-66
2021/08/18 02:58:42;;;;;;;41.65;22.45;;;;;;;13.78;100.00;101493.25;5064541;28;20107;-66
2021/08/18 03:01:07;;;;;;;43.22;22.67;;;;;;;13.79;100.00;101494.16;5066110;28;20494;-66
2021/08/18 03:03:33;;;;;;;43.55;22.38;;;;;;;13.80;100.00;101490.59;5065507;28;20068;-66
2021/08/18 03:05:58;;;;;;;42.72;22.38;;;;;;;13.80;100.00;101495.91;5064536;28;20024;-65
2021/08/18 03:08:23;;;;;;;42.22;22.75;;;;;;;13.80;100.00;101487.06;5066869;28;20028;-63
2021/08/18 03:10:49;;;;;;;41.63;22.23;;;;;;;13.80;100.00;101497.69;5063549;28;20028;-65
2021/08/18 03:13:14;;;;;;;41.22;22.25;;;;;;;13.82;100.00;101493.25;5066891;28;20024;-65
2021/08/18 03:15:40;;;;;;;42.42;22.92;;;;;;;13.80;100.00;101495.91;5063567;28;20024;-65
2021/08/18 03:18:05;;;;;;;41.70;21.35;;;;;;;13.81;100.00;101496.81;5065248;28;20486;-64
2021/08/18 03:20:30;;;;;;;40.80;21.77;;;;;;;13.82;100.00;101504.78;5065748;28;20112;-64
2021/08/18 03:22:55;;;;;;;41.25;22.00;;;;;;;13.82;100.00;101498.56;5063912;28;20020;-65
2021/08/18 03:25:21;;;;;;;39.88;21.35;;;;;;;13.83;100.00;101495.91;5066559;28;20025;-64
2021/08/18 03:27:46;;;;;;;39.20;21.10;;;;;;;13.83;100.00;101498.56;5063951;28;20060;-64
2021/08/18 03:30:13;;;;;;;41.42;21.27;;;;;;;13.82;100.00;101502.13;5066136;28;20382;-64
2021/08/18 03:32:39;;;;;;;38.40;20.90;;;;;;;13.81;100.00;101500.34;5064227;28;20027;-63
2021/08/18 03:35:05;;;;;;;38.25;21.05;;;;;;;13.80;100.00;101498.56;5065317;28;20028;-64
2021/08/18 03:37:30;;;;;;;40.95;21.30;;;;;;;13.79;100.00;101499.47;5065474;28;20021;-64
2021/08/18 03:39:56;;;;;;;40.22;21.48;;;;;;;13.80;100.00;101501.22;5063537;28;20486;-64
2021/08/18 03:42:21;;;;;;;41.22;21.83;;;;;;;13.81;100.00;101502.13;5066834;28;20095;-66
2021/08/18 03:44:47;;;;;;;38.42;21.30;;;;;;;13.80;100.00;101509.19;5062924;28;20476;-66
2021/08/18 03:47:12;;;;;;;41.35;22.27;;;;;;;13.82;100.00;101501.22;5065424;28;20052;-65
2021/08/18 03:49:38;;;;;;;39.50;21.23;;;;;;;13.83;100.00;101503.00;5064311;28;20123;-65
2021/08/18 03:52:04;;;;;;;41.88;22.17;;;;;;;13.82;100.00;101504.78;5064414;28;20025;-66
2021/08/18 03:54:29;;;;;;;42.13;22.35;;;;;;;13.82;100.00;101502.13;5064451;28;20029;-66
2021/08/18 03:56:54;;;;;;;41.63;21.80;;;;;;;13.82;100.00;101502.13;5062934;28;20499;-65
2021/08/18 03:59:20;;;;;;;42.05;22.63;;;;;;;13.82;100.00;101499.47;5066069;28;20083;-65
2021/08/18 04:01:45;;;;;;;39.72;21.17;;;;;;;13.84;100.00;101496.81;5063196;28;20025;-65
2021/08/18 04:04:10;;;;;;;42.10;22.35;;;;;;;13.84;100.00;101496.81;5065127;28;20021;-65
2021/08/18 04:06:36;;;;;;;42.72;22.02;;;;;;;13.84;100.00;101497.69;5064002;28;20032;-66
2021/08/18 04:09:02;;;;;;;40.00;22.20;;;;;;;13.83;100.00;101495.91;5063868;28;20024;-65
2021/08/18 04:11:27;;;;;;;41.83;22.73;;;;;;;13.85;100.00;101488.84;5065025;28;20024;-65
2021/08/18 04:13:52;;;;;;;42.10;22.73;;;;;;;13.88;100.00;101498.59;5062600;28;20124;-65
2021/08/18 04:16:18;;;;;;;40.97;22.13;;;;;;;13.88;100.00;101502.13;5066000;28;20103;-65
2021/08/18 04:18:46;;;;;;;42.20;22.27;;;;;;;13.90;100.00;101496.81;5063044;28;20067;-65
2021/08/18 04:21:13;;;;;;;42.35;22.13;;;;;;;13.90;100.00;101497.69;5064907;28;20021;-65
2021/08/18 04:23:38;;;;;;;42.25;22.45;;;;;;;13.91;100.00;101504.78;5063664;28;20428;-65
2021/08/18 04:26:04;;;;;;;43.85;23.23;;;;;;;13.92;100.00;101497.69;5063895;28;20071;-65
2021/08/18 04:28:29;;;;;;;45.42;23.58;;;;;;;13.92;100.00;101497.69;5064463;28;20058;-65
2021/08/18 04:30:55;;;;;;;43.42;23.17;;;;;;;13.91;100.00;101504.78;5062500;28;20021;-64
2021/08/18 04:33:20;;;;;;;44.38;23.20;;;;;;;13.93;100.00;101503.00;5065488;28;20037;-64
2021/08/18 04:35:45;;;;;;;45.47;24.27;;;;;;;13.93;100.00;101496.81;5062221;28;20031;-64
2021/08/18 04:38:11;;;;;;;45.90;24.63;;;;;;;13.93;100.00;101508.31;5064609;28;20040;-64
2021/08/18 04:40:36;;;;;;;44.80;24.10;;;;;;;13.95;100.00;101500.38;5063283;28;20077;-64
2021/08/18 04:43:02;;;;;;;49.35;26.52;;;;;;;13.97;100.00;101505.69;5063434;28;20029;-65
2021/08/18 04:45:27;;;;;;;50.00;26.25;;;;;;;13.99;100.00;101511.88;5064565;28;20021;-64
2021/08/18 04:47:53;;;;;;;50.53;26.63;;;;;;;13.99;100.00;101506.56;5061873;28;20037;-64
2021/08/18 04:50:19;;;;;;;50.47;27.23;;;;;;;14.01;100.00;101510.09;5065450;28;20077;-65
2021/08/18 04:52:45;;;;;;;50.95;26.60;;;;;;;14.02;100.00;101506.56;5062033;28;20033;-65
2021/08/18 04:55:13;;;;;;;50.65;27.00;;;;;;;14.03;100.00;101509.22;5063944;28;20496;-65
2021/08/18 04:57:38;;;;;;;50.30;26.67;;;;;;;14.06;100.00;101506.56;5062846;28;20033;-65
2021/08/18 05:00:05;;;;;;;54.97;28.13;;;;;;;14.07;100.00;101510.13;5062897;28;20170;-65
2021/08/18 05:02:33;;;;;;;52.05;28.38;;;;;;;14.10;100.00;101503.03;5064114;28;20113;-65
2021/08/18 05:04:59;;;;;;;51.13;28.33;;;;;;;14.12;100.00;101497.69;5062467;28;20036;-65
2021/08/18 05:07:24;;;;;;;55.78;29.85;;;;;;;14.14;100.00;101503.94;5064480;28;20082;-65
2021/08/18 05:09:49;;;;;;;53.70;29.52;;;;;;;14.16;100.00;101498.59;5061389;28;20029;-62
2021/08/18 05:12:15;;;;;;;55.42;31.13;;;;;;;14.18;100.00;101503.00;5064448;28;20081;-62
2021/08/18 05:14:40;;;;;;;58.08;31.17;;;;;;;14.19;100.00;101501.25;5062540;28;20512;-65
2021/08/18 05:17:05;;;;;;;57.60;32.45;;;;;;;14.20;100.00;101493.28;5062198;28;20100;-67
2021/08/18 05:19:31;;;;;;;57.88;31.48;;;;;;;14.22;100.00;101493.28;5063785;28;20112;-65
2021/08/18 05:21:56;;;;;;;56.85;31.23;;;;;;;14.24;100.00;101491.50;5061347;28;20021;-65
2021/08/18 05:24:21;;;;;;;58.83;31.52;;;;;;;14.27;100.00;101491.47;5064397;28;20021;-60
2021/08/18 05:26:47;;;;;;;57.00;31.23;;;;;;;14.32;100.00;101492.38;5061553;28;20029;-65
2021/08/18 05:29:12;;;;;;;60.38;32.17;;;;;;;14.36;100.00;101491.50;5063575;28;20060;-64
2021/08/18 05:31:39;;;;;;;58.47;33.10;;;;;;;14.42;100.00;101488.81;5062872;28;20371;-65
2021/08/18 05:34:04;;;;;;;58.72;32.72;;;;;;;14.45;100.00;101490.59;5062964;28;20083;-65
2021/08/18 05:36:30;;;;;;;59.28;32.75;;;;;;;14.48;100.00;101490.59;5059703;28;20391;-59
2021/08/18 05:38:55;;;;;;;65.22;33.97;;;;;;;14.52;100.00;101491.47;5066573;28;20028;-60
2021/08/18 05:41:20;;;;;;;61.72;33.33;;;;;;;14.54;100.00;101495.03;5071259;28;20429;-59
2021/08/18 05:43:46;;;;;;;60.42;35.45;;;;;;;14.56;100.00;101491.47;5071546;28;20376;-60
2021/08/18 05:46:11;;;;;;;60.53;34.67;;;;;;;14.58;100.00;101489.69;5070803;28;20516;-60
2021/08/18 05:48:36;;;;;;;60.05;34.88;;;;;;;14.63;100.00;101495.94;5071374;28;20043;-60
2021/08/18 05:51:02;;;;;;;60.15;34.60;;;;;;;14.66;100.00;101488.81;5067566;28;20433;-59
2021/08/18 05:53:27;;;;;;;66.13;36.92;;;;;;;14.66;100.00;101489.69;5071242;28;20051;-59
2021/08/18 05:55:53;;;;;;;60.00;35.63;;;;;;;14.68;100.00;101487.94;5070825;28;20051;-60
2021/08/18 05:58:18;;;;;;;59.80;34.35;;;;;;;14.75;100.00;101494.09;5071354;28;20024;-60
2021/08/18 06:00:44;;;;;;;59.42;35.13;;;;;;;14.79;100.00;101486.13;5070974;28;20024;-60
2021/08/18 06:03:09;;;;;;;59.00;35.78;;;;;;;14.82;100.00;101495.84;5070810;28;20433;-59
2021/08/18 06:05:36;;;;;;;59.83;34.58;;;;;;;14.86;100.00;101497.63;5071095;28;20058;-60
2021/08/18 06:08:05;;;;;;;60.15;35.25;;;;;;;14.90;100.00;101496.72;5071470;28;20056;-59
2021/08/18 06:10:30;;;;;;;58.55;35.08;;;;;;;14.93;100.00;101499.38;5070656;28;20032;-60
2021/08/18 06:12:56;;;;;;;56.05;33.97;;;;;;;14.94;100.00;101493.19;5070987;28;20466;-60
2021/08/18 06:15:21;;;;;;;55.70;33.35;;;;;;;15.02;100.00;101501.13;5070929;28;20039;-60
2021/08/18 06:17:47;;;;;;;59.25;36.22;;;;;;;15.04;100.00;101494.00;5071158;28;20467;-60
2021/08/18 06:20:16;;;;;;;51.92;32.25;;;;;;;15.07;100.00;101490.44;5069726;28;20122;-60
2021/08/18 06:22:41;;;;;;;52.83;33.65;;;;;;;15.13;100.00;101498.41;5071120;28;20036;-60
2021/08/18 06:25:07;;;;;;;54.35;34.95;;;;;;;15.15;100.00;101501.97;5070801;28;20024;-60
2021/08/18 06:27:32;;;;;;;55.38;34.63;;;;;;;15.16;100.00;101503.75;5071093;28;20059;-59
2021/08/18 06:29:58;;;;;;;54.85;33.97;;;;;;;15.22;100.00;101494.81;5074385;28;20025;-60
2021/08/18 06:32:23;;;;;;;52.60;32.03;;;;;;;15.31;100.00;101497.47;5074600;28;20356;-61
2021/08/18 06:34:53;;;;;;;51.63;33.28;;;;;;;15.37;100.00;101493.88;5074731;28;20033;-60
2021/08/18 06:37:18;;;;;;;50.25;32.78;;;;;;;15.41;100.00;101498.31;5072785;28;20025;-60
2021/08/18 06:39:43;;;;;;;50.83;31.92;;;;;;;15.50;100.00;101490.25;5074145;28;20024;-59
2021/08/18 06:42:09;;;;;;;46.38;29.40;;;;;;;15.60;100.00;101501.75;5071820;28;20478;-59
2021/08/18 06:44:34;;;;;;;51.80;31.05;;;;;;;15.71;100.00;101496.34;5074385;28;20111;-59
2021/08/18 06:47:00;;;;;;;44.40;29.63;;;;;;;15.77;100.00;101501.63;5073839;28;20064;-59
2021/08/18 06:49:25;;;;;;;43.63;27.88;;;;;;;15.79;100.00;101499.88;5074666;28;20027;-60
2021/08/18 06:51:50;;;;;;;43.67;28.95;;;;;;;15.83;100.00;101501.63;5072551;28;20016;-60
2021/08/18 06:54:16;;;;;;;44.90;30.40;;;;;;;15.85;100.00;101505.16;5073876;28;20024;-60
2021/08/18 06:56:41;;;;;;;44.63;29.45;;;;;;;15.92;100.00;101514.88;5074074;28;20042;-59
2021/08/18 06:59:06;;;;;;;43.15;29.60;;;;;;;15.92;100.00;101509.56;5074407;28;20024;-59
2021/08/18 07:01:32;;;;;;;43.25;29.45;;;;;;;15.96;100.00;101505.97;5074039;28;20021;-60
2021/08/18 07:03:57;;;;;;;42.20;27.73;;;;;;;15.99;100.00;101513.94;5074302;28;20033;-60
2021/08/18 07:06:22;;;;;;;42.20;28.27;;;;;;;15.95;100.00;101509.53;5072509;28;20070;-65
2021/08/18 07:08:48;;;;;;;42.20;27.55;;;;;;;15.91;100.00;101513.09;5073784;28;20028;-65
2021/08/18 07:11:13;;;;;;;44.03;28.45;;;;;;;15.93;100.00;101510.44;5074230;28;20021;-64
2021/08/18 07:13:39;;;;;;;40.58;27.73;;;;;;;15.91;100.00;101510.44;5073751;28;20030;-63
2021/08/18 07:16:05;;;;;;;41.42;27.80;;;;;;;15.88;100.00;101515.78;5073959;28;20071;-64
2021/08/18 07:18:30;;;;;;;40.25;26.83;;;;;;;15.95;100.00;101514.00;5072905;28;20028;-65
2021/08/18 07:20:55;;;;;;;37.67;25.13;;;;;;;16.10;100.00;101512.97;5069013;28;20086;-65
2021/08/18 07:23:21;;;;;;;38.53;26.27;;;;;;;16.12;100.00;101513.84;5071118;28;20021;-65
2021/08/18 07:25:46;;;;;;;38.97;25.27;;;;;;;16.16;100.00;101515.59;5062298;28;20029;-64
2021/08/18 07:28:11;;;;;;;37.80;25.23;;;;;;;16.23;100.00;101517.31;5073137;28;20479;-64
2021/08/18 07:30:37;;;;;;;36.88;24.83;;;;;;;16.31;100.00;101515.47;5074062;28;20091;-66
2021/08/18 07:33:02;;;;;;;37.38;24.25;;;;;;;16.30;100.00;101510.16;5073015;28;20038;-65
2021/08/18 07:35:29;;;;;;;36.70;24.90;;;;;;;16.29;100.00;101514.56;5073361;28;21577;-65
2021/08/18 07:37:54;;;;;;;36.25;24.17;;;;;;;16.33;100.00;101519.00;5073756;28;20031;-65
2021/08/18 07:40:20;;;;;;;36.50;24.40;;;;;;;16.39;100.00;101523.41;5070808;28;20024;-64
2021/08/18 07:42:45;;;;;;;36.28;24.35;;;;;;;16.41;100.00;101512.72;5073370;28;20043;-65
2021/08/18 07:45:11;;;;;;;35.40;23.10;;;;;;;16.42;100.00;101522.50;5072608;28;20020;-63
2021/08/18 07:47:37;;;;;;;34.88;24.02;;;;;;;16.37;100.00;101518.06;5073197;28;20060;-64
2021/08/18 07:50:04;;;;;;;35.25;23.15;;;;;;;16.46;100.00;101516.22;5073484;28;20047;-64
2021/08/18 07:52:29;;;;;;;33.00;21.40;;;;;;;16.50;100.00;101520.66;5073453;28;20055;-64
2021/08/18 07:54:54;;;;;;;33.28;22.67;;;;;;;16.45;100.00;101520.66;5072908;28;20471;-64
2021/08/18 07:57:20;;;;;;;33.40;21.63;;;;;;;16.59;100.00;101519.66;5072312;28;20020;-64
2021/08/18 07:59:45;;;;;;;30.55;19.60;;;;;;;16.65;100.00;101523.16;5072966;28;20031;-64
2021/08/18 08:02:11;;;;;;;29.88;18.42;;;;;;;16.71;100.00;101522.19;5073012;28;20028;-64
2021/08/18 08:04:36;;;;;;;28.23;17.33;;;;;;;16.78;100.00;101520.38;5073085;28;20532;-64
2021/08/18 08:07:02;;;;;;;28.80;17.58;;;;;;;16.77;100.00;101526.59;5072383;28;20028;-64
2021/08/18 08:09:27;;;;;;;27.38;16.60;;;;;;;16.96;100.00;101521.97;5072670;28;20102;-64
2021/08/18 08:11:53;;;;;;;28.02;16.63;;;;;;;17.01;100.00;101526.34;5070956;28;20024;-64
2021/08/18 08:14:19;;;;;;;27.27;15.93;;;;;;;17.05;100.00;101522.75;5063663;28;20025;-64
2021/08/18 08:16:44;;;;;;;27.00;15.13;;;;;;;17.20;100.00;101516.31;5064146;28;20025;-63
2021/08/18 08:19:09;;;;;;;25.92;14.57;;;;;;;17.38;100.00;101517.00;5062518;28;20470;-64
2021/08/18 08:21:35;;;;;;;24.67;13.88;;;;;;;17.36;100.00;101509.00;5065288;28;20041;-64
2021/08/18 08:24:00;;;;;;;23.95;13.18;;;;;;;17.37;100.00;101509.88;5062124;28;20472;-63
2021/08/18 08:26:25;;;;;;;24.40;13.82;;;;;;;17.37;100.00;101518.78;5064587;28;20032;-63
2021/08/18 08:28:51;;;;;;;24.63;13.40;;;;;;;17.23;100.00;101521.63;5063504;28;20035;-64
2021/08/18 08:31:17;;;;;;;23.75;13.50;;;;;;;17.08;100.00;101513.78;5063654;28;20100;-64
2021/08/18 08:33:42;;;;;;;23.23;12.23;;;;;;;17.00;100.00;101524.56;5064596;28;20029;-64
2021/08/18 08:36:07;;;;;;;23.88;11.95;;;;;;;17.00;100.00;101518.38;5062110;28;20049;-63
2021/08/18 08:38:33;;;;;;;23.10;11.63;;;;;;;17.03;100.00;101518.31;5065508;28;20115;-63
2021/08/18 08:40:58;;;;;;;22.23;10.55;;;;;;;17.01;100.00;101526.34;5062385;28;20029;-64
2021/08/18 08:43:25;;;;;;;21.35;9.20;;;;;;;16.93;100.00;101538.91;5064239;28;20117;-63
2021/08/18 08:45:51;;;;;;;20.65;8.52;;;;;;;16.71;100.00;101523.06;5063076;28;20074;-64
2021/08/18 08:48:18;;;;;;;19.63;8.55;;;;;;;16.60;100.00;101538.34;5063110;28;20021;-63
2021/08/18 08:50:45;;;;;;;20.25;8.02;;;;;;;16.54;100.00;101536.59;5063455;28;20095;-63
2021/08/18 08:53:11;;;;;;;20.25;8.60;;;;;;;16.53;100.00;101523.28;5062438;28;20025;-63
2021/08/18 08:55:36;;;;;;;20.67;8.52;;;;;;;16.50;100.00;101544.66;5064941;28;20020;-63
2021/08/18 08:58:03;;;;;;;20.20;7.90;;;;;;;16.38;100.00;101542.97;5061848;28;20036;-62
2021/08/18 09:00:28;;;;;;;19.52;8.07;;;;;;;16.34;100.00;101538.56;5064680;28;20118;-61
2021/08/18 09:03:15;;;;;;;19.45;8.50;;;;;;;16.27;100.00;101537.72;5062542;28;20036;-61
2021/08/18 09:05:41;;;;;;;19.88;8.48;;;;;;;16.22;100.00;101534.19;5061802;28;20448;-60
2021/08/18 09:08:21;;;;;;;20.27;8.77;;;;;;;16.18;100.00;101538.69;5064643;28;20024;-61
2021/08/18 09:11:14;;;;;;;19.85;8.60;;;;;;;15.99;100.00;101531.75;5062702;28;20032;-61
2021/08/18 09:13:53;;;;;;;19.85;8.55;;;;;;;15.87;100.00;101543.34;5061924;28;20079;-62
2021/08/18 09:16:33;;;;;;;20.17;8.85;;;;;;;15.79;100.00;101546.06;5062934;28;20032;-62
2021/08/18 09:18:58;;;;;;;20.95;9.00;;;;;;;15.56;100.00;101547.94;5064367;28;20025;-62
2021/08/18 09:21:41;;;;;;;21.63;10.40;;;;;;;15.40;100.00;101548.00;5062165;28;20035;-62
2021/08/18 09:24:15;;;;;;;21.42;10.07;;;;;;;15.29;100.00;101541.84;5061144;28;20025;-61
2021/08/18 09:26:48;;;;;;;21.58;9.77;;;;;;;15.32;100.00;101542.72;5061367;28;20041;-63
2021/08/18 09:29:24;;;;;;;21.13;9.95;;;;;;;15.46;100.00;101541.78;5063470;28;20029;-62
2021/08/18 09:31:50;;;;;;;22.10;9.68;;;;;;;15.65;100.00;101547.91;5062824;28;20056;-63
2021/08/18 09:34:15;;;;;;;20.88;9.25;;;;;;;15.75;100.00;101548.72;5063489;28;20105;-60
2021/08/18 09:36:40;;;;;;;20.75;9.65;;;;;;;15.87;100.00;101538.00;5061294;28;20048;-63
2021/08/18 09:39:22;;;;;;;21.33;9.50;;;;;;;15.98;100.00;101538.81;5064566;28;20517;-62
2021/08/18 09:41:48;;;;;;;19.40;8.40;;;;;;;16.04;100.00;101538.78;5071175;28;20029;-59
2021/08/18 09:44:14;;;;;;;19.80;8.43;;;;;;;16.18;100.00;101538.69;5071517;28;20024;-64
2021/08/18 09:46:39;;;;;;;20.17;8.30;;;;;;;16.35;100.00;101540.31;5071012;28;20391;-64
2021/08/18 09:49:07;;;;;;;19.45;8.18;;;;;;;16.49;100.00;101529.53;5071236;28;20016;-63
2021/08/18 09:51:32;;;;;;;18.80;7.53;;;;;;;16.55;100.00;101525.00;5071559;28;20507;-64
2021/08/18 09:54:19;;;;;;;18.98;7.70;;;;;;;16.83;100.00;101522.06;5070871;28;20063;-64
2021/08/18 09:56:47;;;;;;;19.83;8.32;;;;;;;17.14;100.00;101516.41;5070952;28;20479;-64
2021/08/18 09:59:14;;;;;;;20.80;8.77;;;;;;;17.41;100.00;101520.50;5071188;28;20391;-64
2021/08/18 10:01:39;;;;;;;20.10;8.77;;;;;;;17.84;97.97;101508.31;5070197;28;20029;-63
2021/08/18 10:04:05;;;;;;;21.58;9.30;;;;;;;18.44;98.69;101503.81;5073984;28;20040;-64
2021/08/18 10:06:31;;;;;;;22.58;10.88;;;;;;;19.24;90.77;101512.09;5075485;28;20078;-64
2021/08/18 10:08:57;;;;;;;23.20;12.00;;;;;;;19.60;85.42;101509.50;5075060;28;20499;-65
2021/08/18 10:11:24;;;;;;;24.73;13.48;;;;;;;19.73;82.77;101505.66;5075128;28;20026;-64
2021/08/18 10:13:50;;;;;;;24.70;14.02;;;;;;;19.52;82.46;101505.19;5073343;28;20029;-65
2021/08/18 10:16:16;;;;;;;25.77;15.10;;;;;;;19.73;80.78;101494.94;5074058;28;20112;-64
2021/08/18 10:18:47;;;;;;;26.77;17.40;;;;;;;19.51;80.65;101490.06;5074796;28;20025;-64
2021/08/18 10:21:18;;;;;;;27.25;16.63;;;;;;;19.40;84.02;101488.53;5075095;28;20024;-64
2021/08/18 10:23:57;;;;;;;29.27;18.95;;;;;;;19.44;85.57;101491.09;5073542;28;20194;-64
2021/08/18 10:26:35;;;;;;;31.63;22.70;;;;;;;19.28;85.50;101490.56;5074747;28;21170;-65
2021/08/18 10:29:04;;;;;;;31.98;21.65;;;;;;;19.30;84.60;101487.84;5066197;28;20037;-64
2021/08/18 10:31:42;;;;;;;30.70;20.83;;;;;;;19.34;85.70;101494.91;5065942;28;20031;-64
2021/08/18 10:34:45;;;;;;;30.20;20.02;;;;;;;19.42;84.69;101490.25;5066595;28;20028;-65
2021/08/18 10:37:14;;;;;;;30.27;19.92;;;;;;;19.56;83.90;101495.31;5066862;28;20028;-64
2021/08/18 10:39:39;;;;;;;31.00;20.75;;;;;;;19.40;82.96;101489.41;5064054;28;20060;-64
2021/08/18 10:42:15;;;;;;;31.58;21.67;;;;;;;19.13;86.38;101494.47;5066456;28;20071;-65
2021/08/18 10:44:47;;;;;;;33.08;22.88;;;;;;;18.57;90.49;101481.25;5064172;28;20029;-65
2021/08/18 10:47:28;;;;;;;34.47;24.00;;;;;;;18.07;95.69;101483.91;5067109;28;20044;-65
2021/08/18 10:49:57;;;;;;;32.97;22.33;;;;;;;17.72;100.00;101477.31;5064714;28;20029;-64
2021/08/18 10:52:28;;;;;;;33.83;24.27;;;;;;;17.56;100.00;101489.13;5066979;28;20033;-64
2021/08/18 10:55:13;;;;;;;35.80;25.48;;;;;;;17.48;100.00;101480.34;5064763;28;20021;-64
2021/08/18 10:57:44;;;;;;;35.85;25.70;;;;;;;17.34;100.00;101480.53;5064850;28;20032;-64
2021/08/18 11:00:10;;;;;;;37.95;26.98;;;;;;;17.34;100.00;101480.53;5066478;28;20468;-65